Weather reports worldwide

Advertisment
Comiso, Italy (16475): temperature & dewpoint: 05.12.2019 08:00:00 - 11.12.2019 08:00:00 (CET)Comiso, Italy (16475): wind speed: 05.12.2019 08:00:00 - 11.12.2019 08:00:00 (CET)Comiso, Italy (16475): wind direction: 05.12.2019 08:00:00 - 11.12.2019 08:00:00 (CET)Comiso, Italy (16475): visibility: 05.12.2019 08:00:00 - 11.12.2019 08:00:00 (CET)
Date & Time tt [°C] td [°C] ff [km/h] ff [kn] dd vv [km]
11.12.2019 08:00:00 7,0 5,0 4 2 NE 10
11.12.2019 07:00:00 6,0 5,0 4 2 NE 10
11.12.2019 06:00:00 7,0 5,0 5 3 ENE 10
11.12.2019 05:00:00 7,0 5,0 5 3 ENE 10
11.12.2019 04:00:00 8,0 6,0 8 4 NNE 10
11.12.2019 03:00:00 9,0 6,0 8 4 NNE 10
11.12.2019 02:00:00 9,0 6,0 4 2 - 10
11.12.2019 01:00:00 9,0 6,0 8 4 NNE 10
11.12.2019 00:00:00 9,0 6,0 9 5 ENE 9
10.12.2019 23:00:00 9,0 6,0 4 2 - 10
10.12.2019 22:00:00 7,0 6,0 9 5 NE 10
10.12.2019 21:00:00 6,0 5,0 8 4 ENE 10
10.12.2019 20:00:00 7,0 5,0 5 3 E 10
10.12.2019 19:00:00 8,0 6,0 8 4 E 10
10.12.2019 18:00:00 9,0 7,0 8 4 ESE 10
10.12.2019 17:00:00 11,0 7,0 8 4 WSW 10
10.12.2019 16:00:00 13,0 7,0 11 6 W 10
10.12.2019 15:00:00 13,0 6,0 24 13 W 10
10.12.2019 14:00:00 13,0 8,0 21 11 W 10
10.12.2019 13:00:00 14,0 8,0 11 6 WSW 10
10.12.2019 12:00:00 14,0 8,0 13 7 W 10
10.12.2019 11:00:00 14,0 8,0 13 7 WNW 10
10.12.2019 10:00:00 13,0 9,0 9 5 W 10
10.12.2019 09:00:00 11,0 9,0 4 2 - 10
10.12.2019 08:00:00 8,0 7,0 5 3 SE 10
10.12.2019 07:00:00 9,0 8,0 4 2 - 10
10.12.2019 06:00:00 9,0 8,0 18 10 W 10
10.12.2019 05:00:00 9,0 7,0 8 4 SE 10
10.12.2019 04:00:00 7,0 6,0 4 2 - 10
10.12.2019 03:00:00 5,0 4,0 5 3 E 10
10.12.2019 02:00:00 6,0 5,0 4 2 - 10
10.12.2019 01:00:00 6,0 5,0 8 4 E 10
10.12.2019 00:00:00 6,0 4,0 5 3 ENE 10
09.12.2019 23:00:00 7,0 6,0 8 4 E 10
09.12.2019 22:00:00 8,0 7,0 8 4 NE 10
09.12.2019 21:00:00 9,0 7,0 4 2 - 10
09.12.2019 20:00:00 11,0 9,0 5 3 E 10
09.12.2019 19:00:00 12,0 10,0 4 2 - 10
09.12.2019 18:00:00 12,0 10,0 5 3 ESE 10
09.12.2019 17:00:00 14,0 10,0 4 2 - 10
09.12.2019 16:00:00 15,0 11,0 8 4 SW 10
09.12.2019 15:00:00 15,0 11,0 4 2 - 10
09.12.2019 14:00:00 15,0 9,0 4 2 - 10
09.12.2019 13:00:00 15,0 8,0 9 5 N 10
09.12.2019 12:00:00 15,0 10,0 13 7 NE 10
09.12.2019 11:00:00 13,0 10,0 11 6 NNE 10
09.12.2019 10:00:00 13,0 8,0 9 5 N 10
09.12.2019 09:00:00 12,0 8,0 4 2 - 10
09.12.2019 08:00:00 10,0 7,0 8 4 E 10
09.12.2019 07:00:00 10,0 7,0 4 2 - 10
09.12.2019 06:00:00 10,0 6,0 4 2 - 10
09.12.2019 05:00:00 10,0 6,0 5 3 N 10
09.12.2019 04:00:00 10,0 6,0 4 2 - 10
09.12.2019 03:00:00 9,0 6,0 8 4 NE 10
09.12.2019 02:00:00 9,0 6,0 5 3 E 10
09.12.2019 01:00:00 10,0 6,0 4 2 - 10
09.12.2019 00:00:00 11,0 7,0 8 4 NNE 10
08.12.2019 23:00:00 11,0 8,0 4 2 - 10
08.12.2019 22:00:00 14,0 8,0 8 4 ESE 10
08.12.2019 21:00:00 11,0 8,0 8 4 ENE 10
08.12.2019 20:00:00 11,0 9,0 5 3 NNE 10
08.12.2019 19:00:00 11,0 9,0 9 5 ENE 10
08.12.2019 18:00:00 12,0 10,0 11 6 NE 10
08.12.2019 17:00:00 15,0 11,0 2 1 - 10
08.12.2019 16:00:00 17,0 11,0 11 6 W 10
08.12.2019 15:00:00 18,0 9,0 11 6 WSW 10
08.12.2019 14:00:00 17,0 8,0 5 3 ENE 10
08.12.2019 13:00:00 18,0 8,0 2 1 - 10
08.12.2019 12:00:00 17,0 6,0 8 4 WSW 10
08.12.2019 11:00:00 16,0 10,0 4 2 W 10
08.12.2019 10:00:00 14,0 9,0 5 3 ENE 10
08.12.2019 09:00:00 10,0 7,0 8 4 ENE 10
08.12.2019 08:00:00 7,0 5,0 11 6 ENE 10
08.12.2019 07:00:00 7,0 5,0 11 6 NE 10
08.12.2019 06:00:00 7,0 5,0 8 4 ENE 10
08.12.2019 05:00:00 7,0 5,0 8 4 ENE 10
08.12.2019 04:00:00 8,0 6,0 5 3 ENE 10
08.12.2019 03:00:00 6,0 5,0 8 4 E 10
08.12.2019 02:00:00 6,0 4,0 2 1 - 9
08.12.2019 01:00:00 8,0 6,0 8 4 NE 10
08.12.2019 00:00:00 8,0 6,0 9 5 ENE 10
07.12.2019 23:00:00 8,0 7,0 9 5 ENE 10
07.12.2019 22:00:00 10,0 9,0 9 5 ENE 10
07.12.2019 21:00:00 12,0 11,0 8 4 E 10
07.12.2019 20:00:00 11,0 10,0 8 4 E 10
07.12.2019 19:00:00 11,0 10,0 5 3 ENE 10
07.12.2019 18:00:00 13,0 12,0 4 2 SE 10
07.12.2019 17:00:00 15,0 12,0 8 4 WNW 10
07.12.2019 16:00:00 17,0 12,0 13 7 WSW 10
07.12.2019 15:00:00 20,0 9,0 9 5 W 10
07.12.2019 14:00:00 19,0 10,0 5 3 NW 10
07.12.2019 13:00:00 19,0 9,0 4 2 - 10
07.12.2019 12:00:00 18,0 10,0 8 4 NNW 10
07.12.2019 11:00:00 18,0 11,0 4 2 - 10
07.12.2019 10:00:00 17,0 10,0 4 2 - 10
07.12.2019 09:00:00 13,0 10,0 2 1 - 10
07.12.2019 08:00:00 7,0 6,0 4 2 - 10
07.12.2019 07:00:00 7,0 5,0 4 2 - 10
07.12.2019 06:00:00 7,0 6,0 9 5 ENE 9
07.12.2019 05:00:00 7,0 6,0 5 3 E 9
07.12.2019 04:00:00 7,0 7,0 8 4 E 8
07.12.2019 03:00:00 8,0 7,0 5 3 E 10
07.12.2019 02:00:00 8,0 7,0 8 4 ESE 10
07.12.2019 01:00:00 8,0 7,0 4 2 - 10
07.12.2019 00:00:00 8,0 7,0 5 3 E 9
06.12.2019 23:00:00 9,0 8,0 5 3 ESE 10
06.12.2019 22:00:00 11,0 10,0 4 2 - 10
06.12.2019 21:00:00 12,0 11,0 4 2 - 10
06.12.2019 20:00:00 12,0 11,0 4 2 - 10
06.12.2019 19:00:00 12,0 11,0 4 2 - 10
06.12.2019 18:00:00 14,0 12,0 4 2 - 10
06.12.2019 17:00:00 15,0 12,0 9 5 WSW 10
06.12.2019 16:00:00 17,0 12,0 13 7 W 10
06.12.2019 15:00:00 18,0 12,0 13 7 W 10
06.12.2019 14:00:00 - - - - - -
06.12.2019 13:00:00 - - - - - -
06.12.2019 12:00:00 18,0 13,0 11 6 W 10
06.12.2019 11:00:00 19,0 13,0 5 3 - 10
06.12.2019 10:00:00 18,0 13,0 2 1 - 10
06.12.2019 09:00:00 16,0 13,0 2 1 - 10
06.12.2019 08:00:00 12,0 12,0 5 3 ESE 10
06.12.2019 07:00:00 12,0 11,0 2 1 ENE 9
06.12.2019 06:00:00 12,0 11,0 4 2 ENE 8
06.12.2019 05:00:00 12,0 11,0 8 4 ENE 9
06.12.2019 04:00:00 11,0 10,0 4 2 ENE 9
06.12.2019 03:00:00 13,0 11,0 5 3 ENE 10
06.12.2019 02:00:00 13,0 11,0 5 3 ESE 9
06.12.2019 01:00:00 13,0 11,0 4 2 - 8
06.12.2019 00:00:00 13,0 12,0 4 2 - 10
05.12.2019 23:00:00 13,0 12,0 5 3 NNE 10
05.12.2019 22:00:00 14,0 12,0 8 4 NE 10
05.12.2019 21:00:00 14,0 12,0 9 5 NE 10
05.12.2019 20:00:00 15,0 13,0 4 2 - 10
05.12.2019 19:00:00 - - - - - -
05.12.2019 18:00:00 15,0 13,0 9 5 NNE 10
05.12.2019 17:00:00 16,0 13,0 11 6 NNE 10
05.12.2019 16:00:00 17,0 14,0 13 7 NNE 10
05.12.2019 15:00:00 17,0 13,0 18 10 NNE 10
05.12.2019 14:00:00 19,0 13,0 8 4 NNE 10
05.12.2019 13:00:00 - - - - - -
05.12.2019 12:00:00 18,0 13,0 15 8 NNE 10
05.12.2019 11:00:00 18,0 13,0 11 6 NE 10
05.12.2019 10:00:00 18,0 13,0 9 5 NNE 10
05.12.2019 09:00:00 17,0 12,0 5 3 - 10
05.12.2019 08:00:00 14,0 11,0 9 5 NNW 10

tt = temperature
td = dewpoint
ff = wind speed
dd = wind direction
vv = visibility

Next stations